SCCY/GXQ METAR and TAF weather

Enter ICAO airport designator
Station Type Date Time Source
SCCY METAR 2022/01/26 08:00 UTC NOAA

SCCY 260800Z AUTO 04003KT 350V080 CAVOK 07/05 Q1021


Station Type Date Time Source
SCCY Decoded METAR 2022/01/26 08:00 UTC NOAA

Coyhaique, Chile (SCCY) 45-35S 072-07W
Jan 26, 2022 - 03:00 AM EST / 2022.01.26 0800 UTC
Wind: from the NE (040 degrees) at 3 MPH (3 KT) (direction variable):0
Visibility: greater than 7 mile(s):0
Temperature: 44 F (7 C)
Dew Point: 41 F (5 C)
Relative Humidity: 87%
Pressure (altimeter): 30.15 in. Hg (1021 hPa)
ob: SCCY 260800Z AUTO 04003KT 350V080 CAVOK 07/05 Q1021
cycle: 8

Station Type Date Time Source
SCCY TAF 2022/01/25 18:33 UTC NOAA

TAF SCCY 251624Z 2518/2606 21006KT CAVOK TX22/2520Z TN10/2606Z
BECMG 2523/2601 VRB03KT

Example: see airport list